Time;durP1;ratioP1;P1;durP2;ratioP2;P2;SDS_P1;SDS_P2;PMS_P1;PMS_P2;Temp;Humidity;BMP_temperature;BMP_pressure;BME280_temperature;BME280_humidity;BME280_pressure;Samples;Min_cycle;Max_cycle;Signal;HPM_P1;HPM_P2
2022/06/20 00:00:40;;;;;;;6.82;1.70;;;14.90;99.90;;;;;;5052985;28;20107;-74
2022/06/20 00:03:10;;;;;;;9.00;2.00;;;14.80;99.90;;;;;;5070317;28;20058;-74
2022/06/20 00:05:37;;;;;;;7.93;1.98;;;14.80;99.90;;;;;;5066835;28;20024;-74
2022/06/20 00:08:04;;;;;;;5.30;1.95;;;14.80;99.90;;;;;;5043282;28;20033;-74
2022/06/20 00:10:30;;;;;;;10.52;2.20;;;14.80;99.90;;;;;;5070193;28;20033;-73
2022/06/20 00:12:57;;;;;;;13.13;2.10;;;14.80;99.90;;;;;;5069522;28;20024;-74
2022/06/20 00:15:33;;;;;;;8.68;2.30;;;14.80;99.90;;;;;;5070481;28;20379;-74
2022/06/20 00:18:00;;;;;;;9.60;2.25;;;14.80;99.90;;;;;;5070040;28;20036;-74
2022/06/20 00:20:27;;;;;;;10.23;2.00;;;14.80;99.90;;;;;;5070574;28;20025;-74
2022/06/20 00:22:54;;;;;;;11.18;2.45;;;14.80;99.90;;;;;;5070135;28;20078;-74
2022/06/20 00:25:19;;;;;;;9.30;2.10;;;14.80;99.90;;;;;;5070079;28;20052;-74
2022/06/20 00:27:46;;;;;;;8.13;2.10;;;14.80;99.90;;;;;;5069798;28;20120;-74
2022/06/20 00:30:14;;;;;;;6.03;2.05;;;14.70;99.90;;;;;;5069933;28;20020;-73
2022/06/20 00:32:40;;;;;;;10.73;2.20;;;14.70;99.90;;;;;;5069195;28;20101;-74
2022/06/20 00:35:06;;;;;;;8.23;2.13;;;14.80;99.90;;;;;;5068559;28;20029;-74
2022/06/20 00:37:32;;;;;;;8.02;2.20;;;14.70;99.90;;;;;;5069462;28;20028;-73
2022/06/20 00:39:58;;;;;;;12.20;2.85;;;14.70;99.90;;;;;;5069812;28;20035;-74
2022/06/20 00:42:25;;;;;;;12.88;2.60;;;14.70;99.90;;;;;;5066843;28;20085;-74
2022/06/20 00:44:56;;;;;;;14.13;2.60;;;14.70;99.90;;;;;;5069395;28;20396;-73
2022/06/20 00:47:26;;;;;;;8.88;2.70;;;14.60;99.90;;;;;;5064682;28;20159;-74
2022/06/20 00:50:19;;;;;;;8.65;2.78;;;14.50;99.90;;;;;;5069654;28;20322;-73
2022/06/20 00:52:53;;;;;;;11.32;2.30;;;14.50;99.90;;;;;;5069634;28;20421;-74
2022/06/20 00:55:26;;;;;;;8.80;2.85;;;14.50;99.90;;;;;;5069799;28;20028;-73
2022/06/20 00:57:59;;;;;;;10.18;2.63;;;14.50;99.90;;;;;;5069707;28;20027;-73
2022/06/20 01:00:30;;;;;;;14.02;2.80;;;14.50;99.90;;;;;;5069799;28;20032;-73
2022/06/20 01:03:11;;;;;;;15.55;2.90;;;14.50;99.90;;;;;;5069760;28;20020;-74
2022/06/20 01:06:02;;;;;;;13.23;2.90;;;14.50;99.90;;;;;;5069855;28;20035;-73
2022/06/20 01:08:39;;;;;;;10.55;2.55;;;14.50;99.90;;;;;;5064709;28;20049;-74
2022/06/20 01:11:12;;;;;;;14.05;2.75;;;14.50;99.90;;;;;;5073048;28;20016;-73
2022/06/20 01:13:39;;;;;;;13.18;2.78;;;14.50;99.90;;;;;;5070232;28;20024;-73
2022/06/20 01:16:23;;;;;;;13.75;3.03;;;14.50;99.90;;;;;;5073409;28;20123;-73
2022/06/20 01:18:49;;;;;;;13.48;2.80;;;14.50;99.90;;;;;;5073121;28;20029;-73
2022/06/20 01:21:21;;;;;;;11.57;2.83;;;14.50;99.90;;;;;;5073252;28;20358;-73
2022/06/20 01:24:12;;;;;;;13.07;2.72;;;14.60;99.90;;;;;;5055198;28;20499;-74
2022/06/20 01:26:43;;;;;;;10.20;2.40;;;14.60;99.90;;;;;;5073611;28;20048;-73
2022/06/20 01:29:11;;;;;;;8.27;2.15;;;14.60;99.90;;;;;;5072854;28;20027;-74
2022/06/20 01:31:44;;;;;;;12.43;2.92;;;14.60;99.90;;;;;;5072995;28;20013;-73
2022/06/20 01:34:13;;;;;;;12.10;2.67;;;14.60;99.90;;;;;;5054520;28;20020;-73
2022/06/20 01:39:28;;;;;;;9.88;2.50;;;14.60;99.90;;;;;;5072720;28;20036;-73
2022/06/20 01:44:42;;;;;;;12.88;2.38;;;14.60;99.90;;;;;;5071569;28;20396;-74
2022/06/20 01:47:08;;;;;;;16.00;2.72;;;14.60;99.90;;;;;;5072781;28;20366;-74
2022/06/20 01:49:35;;;;;;;12.65;2.83;;;14.60;99.90;;;;;;5072196;28;20039;-74
2022/06/20 01:52:20;;;;;;;14.77;2.60;;;14.60;99.90;;;;;;5073157;28;20346;-75
2022/06/20 01:54:51;;;;;;;9.15;2.20;;;14.60;99.90;;;;;;5072333;28;20376;-74
2022/06/20 01:57:18;;;;;;;9.93;2.10;;;14.60;99.90;;;;;;5071912;28;20043;-74
2022/06/20 01:59:49;;;;;;;10.85;2.58;;;14.60;99.90;;;;;;5071744;28;20139;-74
2022/06/20 02:02:15;;;;;;;10.70;2.28;;;14.60;99.90;;;;;;5061757;28;20048;-73
2022/06/20 02:04:42;;;;;;;9.23;2.15;;;14.60;99.90;;;;;;5070815;28;20055;-73
2022/06/20 02:07:10;;;;;;;12.05;2.13;;;14.60;99.90;;;;;;5070389;28;20536;-75
2022/06/20 02:09:37;;;;;;;10.35;2.25;;;14.50;99.90;;;;;;5071299;28;20408;-75
2022/06/20 02:12:03;;;;;;;8.20;2.15;;;14.50;99.90;;;;;;5072117;28;20056;-74
2022/06/20 02:14:41;;;;;;;8.85;2.15;;;14.40;99.90;;;;;;5072653;28;20097;-74
2022/06/20 02:17:13;;;;;;;11.63;2.15;;;14.40;99.90;;;;;;5071810;28;20025;-75
2022/06/20 02:19:46;;;;;;;8.95;2.03;;;14.30;99.90;;;;;;5052693;28;20032;-74
2022/06/20 02:22:12;;;;;;;8.88;2.45;;;14.30;99.90;;;;;;5070102;28;20413;-74
2022/06/20 02:24:41;;;;;;;8.45;2.17;;;14.30;99.90;;;;;;5072080;28;20310;-74
2022/06/20 02:27:12;;;;;;;12.43;2.25;;;14.30;99.90;;;;;;5071180;28;20045;-74
2022/06/20 02:29:38;;;;;;;10.73;2.00;;;14.30;99.90;;;;;;5062826;28;20434;-75
2022/06/20 02:32:24;;;;;;;12.43;2.40;;;14.30;99.90;;;;;;5060796;28;20024;-74
2022/06/20 02:34:50;;;;;;;9.10;2.78;;;14.30;99.90;;;;;;5070743;28;20060;-74
2022/06/20 02:37:23;;;;;;;9.27;2.30;;;14.30;99.90;;;;;;5069757;28;20040;-74
2022/06/20 02:39:53;;;;;;;10.80;2.72;;;14.20;99.90;;;;;;5070892;28;20077;-74
2022/06/20 02:42:42;;;;;;;6.97;2.05;;;14.20;99.90;;;;;;5067806;28;20476;-74
2022/06/20 02:45:11;;;;;;;10.10;2.30;;;14.20;99.90;;;;;;5064886;28;20028;-74
2022/06/20 02:47:44;;;;;;;10.32;2.22;;;14.20;99.90;;;;;;5037589;28;20568;-74
2022/06/20 02:50:12;;;;;;;9.55;2.03;;;14.10;99.90;;;;;;5071583;28;20029;-74
2022/06/20 02:52:50;;;;;;;10.90;2.35;;;14.10;99.90;;;;;;5053374;28;20557;-75
2022/06/20 02:55:18;;;;;;;9.70;1.95;;;14.10;99.90;;;;;;5069062;28;20086;-73
2022/06/20 02:57:51;;;;;;;9.10;1.85;;;14.10;99.90;;;;;;5071132;28;20071;-74
2022/06/20 03:00:26;;;;;;;8.50;1.95;;;14.10;99.90;;;;;;5068555;28;20051;-74
2022/06/20 03:02:57;;;;;;;8.77;2.22;;;14.00;99.90;;;;;;5067814;28;20032;-73
2022/06/20 03:05:23;;;;;;;6.03;1.70;;;14.00;99.90;;;;;;5071194;28;20090;-74
2022/06/20 03:07:51;;;;;;;8.57;2.30;;;14.00;99.90;;;;;;5070864;28;20103;-74
2022/06/20 03:10:28;;;;;;;10.40;2.08;;;13.90;99.90;;;;;;5067342;28;20116;-73
2022/06/20 03:12:56;;;;;;;12.57;2.28;;;13.90;99.90;;;;;;5064984;28;20424;-75
2022/06/20 03:15:22;;;;;;;10.30;2.05;;;13.90;99.90;;;;;;5066660;28;20025;-74
2022/06/20 03:17:50;;;;;;;8.07;2.20;;;13.90;99.90;;;;;;5070425;28;20089;-75
2022/06/20 03:20:19;;;;;;;11.18;1.95;;;13.90;99.90;;;;;;5071277;28;20062;-74
2022/06/20 03:23:17;;;;;;;7.32;1.88;;;13.90;99.90;;;;;;5071058;28;20028;-75
2022/06/20 03:25:44;;;;;;;12.18;2.17;;;13.90;99.90;;;;;;5069375;28;20048;-74
2022/06/20 03:28:15;;;;;;;10.18;2.00;;;13.80;99.90;;;;;;5070827;28;20028;-73
2022/06/20 03:30:42;;;;;;;8.18;2.00;;;13.80;99.90;;;;;;5070926;28;20020;-74
2022/06/20 03:33:13;;;;;;;12.90;2.17;;;13.80;99.90;;;;;;5052315;28;20535;-74
2022/06/20 03:35:43;;;;;;;6.90;1.75;;;13.80;99.90;;;;;;5067231;28;20029;-74
2022/06/20 03:38:11;;;;;;;10.50;2.10;;;13.70;99.90;;;;;;5071017;28;20498;-73
2022/06/20 03:40:40;;;;;;;7.70;1.95;;;13.70;99.90;;;;;;5070666;28;20036;-74
2022/06/20 03:43:09;;;;;;;7.95;2.22;;;13.70;99.90;;;;;;5052589;28;20112;-74
2022/06/20 03:45:40;;;;;;;7.18;1.70;;;13.80;99.90;;;;;;5051938;28;20546;-74
2022/06/20 03:48:16;;;;;;;6.80;1.92;;;13.80;99.90;;;;;;5060685;28;20518;-74
2022/06/20 03:51:23;;;;;;;9.98;2.10;;;13.80;99.90;;;;;;5071058;28;20375;-74
2022/06/20 03:54:10;;;;;;;10.88;1.92;;;13.80;99.90;;;;;;5061337;28;20251;-74
2022/06/20 03:56:50;;;;;;;7.22;2.20;;;13.90;99.90;;;;;;5060534;28;20477;-73
2022/06/20 03:59:34;;;;;;;9.57;1.80;;;13.90;99.90;;;;;;5070473;28;20028;-74
2022/06/20 04:02:13;;;;;;;7.22;1.95;;;13.80;99.90;;;;;;5070903;28;20025;-73
2022/06/20 04:04:59;;;;;;;6.45;1.80;;;13.90;99.90;;;;;;5067441;28;20419;-73
2022/06/20 04:08:03;;;;;;;6.15;2.03;;;13.90;99.90;;;;;;5071102;28;20379;-73
2022/06/20 04:13:24;;;;;;;9.38;2.40;;;13.90;99.90;;;;;;5070695;28;20116;-74
2022/06/20 04:16:31;;;;;;;10.13;2.35;;;13.90;99.90;;;;;;5069543;28;20039;-73
2022/06/20 04:19:19;;;;;;;8.63;2.75;;;13.90;99.90;;;;;;5061042;28;20371;-74
2022/06/20 04:21:55;;;;;;;12.82;2.70;;;13.90;99.90;;;;;;5057329;28;20028;-73
2022/06/20 04:24:53;;;;;;;10.15;2.45;;;13.80;99.90;;;;;;5060244;28;20025;-72
2022/06/20 04:27:33;;;;;;;11.27;2.25;;;13.80;99.90;;;;;;5056650;28;20074;-72
2022/06/20 04:30:25;;;;;;;11.50;2.55;;;13.80;99.90;;;;;;5057425;28;20503;-73
2022/06/20 04:32:56;;;;;;;11.90;2.53;;;13.80;99.90;;;;;;5038892;28;20028;-72
2022/06/20 04:35:29;;;;;;;16.17;3.00;;;13.80;99.90;;;;;;5067683;28;20392;-73
2022/06/20 04:38:04;;;;;;;9.93;2.45;;;13.80;99.90;;;;;;5063204;28;20541;-73
2022/06/20 04:40:43;;;;;;;11.27;2.60;;;13.90;99.90;;;;;;5055330;28;20060;-73
2022/06/20 04:43:30;;;;;;;12.05;2.92;;;13.90;99.90;;;;;;5061748;28;20025;-74
2022/06/20 04:46:01;;;;;;;14.02;3.10;;;13.90;99.90;;;;;;5068605;28;20024;-73
2022/06/20 04:48:27;;;;;;;9.13;2.50;;;13.90;99.90;;;;;;5060876;28;20013;-74
2022/06/20 04:51:00;;;;;;;9.95;2.80;;;13.90;99.90;;;;;;5064660;28;20027;-73
2022/06/20 04:53:33;;;;;;;15.30;3.15;;;14.00;99.90;;;;;;5063758;28;20025;-73
2022/06/20 04:56:02;;;;;;;13.77;2.80;;;14.00;99.90;;;;;;5054791;28;20374;-73
2022/06/20 04:58:38;;;;;;;13.63;2.90;;;14.00;99.90;;;;;;5066223;28;20175;-74
2022/06/20 05:01:06;;;;;;;8.02;2.80;;;14.10;99.90;;;;;;5068535;28;20031;-73
2022/06/20 05:03:57;;;;;;;8.40;2.95;;;14.10;99.90;;;;;;5050573;28;20445;-73
2022/06/20 05:06:29;;;;;;;15.85;3.10;;;14.10;99.90;;;;;;5064721;28;20027;-74
2022/06/20 05:09:06;;;;;;;11.57;3.00;;;14.20;99.90;;;;;;5070274;28;20052;-74
2022/06/20 05:11:45;;;;;;;12.90;3.40;;;14.20;99.90;;;;;;5065368;28;20353;-74
2022/06/20 05:14:27;;;;;;;11.88;3.55;;;14.30;99.90;;;;;;5063514;28;20066;-74
2022/06/20 05:16:54;;;;;;;14.27;3.17;;;14.30;99.90;;;;;;5058165;28;20423;-73
2022/06/20 05:19:38;;;;;;;15.40;3.53;;;14.40;99.90;;;;;;5051815;28;20050;-73
2022/06/20 05:22:29;;;;;;;17.38;3.80;;;14.40;99.90;;;;;;5070668;28;20111;-74
2022/06/20 05:24:58;;;;;;;14.75;3.17;;;14.50;99.90;;;;;;5043607;28;20028;-73
2022/06/20 05:27:30;;;;;;;9.55;3.15;;;14.50;99.90;;;;;;5058865;28;20051;-75
2022/06/20 05:30:01;;;;;;;11.05;3.20;;;14.50;99.90;;;;;;5037667;28;20021;-75
2022/06/20 05:32:56;;;;;;;11.27;2.90;;;14.60;99.90;;;;;;5064156;28;20032;-73
2022/06/20 05:35:31;;;;;;;9.68;3.00;;;14.60;99.90;;;;;;4969481;28;20569;-73
2022/06/20 05:38:25;;;;;;;9.70;2.83;;;14.60;99.90;;;;;;4961973;28;20066;-73
2022/06/20 05:40:56;;;;;;;13.75;3.10;;;14.50;99.90;;;;;;4961157;28;20043;-73
2022/06/20 05:43:23;;;;;;;11.32;2.75;;;14.50;99.90;;;;;;4961230;28;20063;-73
2022/06/20 05:45:54;;;;;;;15.73;3.17;;;14.50;99.90;;;;;;4967918;28;20455;-72
2022/06/20 05:48:40;;;;;;;14.88;3.50;;;14.60;99.90;;;;;;4971942;28;20054;-73
2022/06/20 05:51:09;;;;;;;16.52;3.78;;;14.60;99.90;;;;;;4968796;28;20032;-74
2022/06/20 05:53:43;;;;;;;10.60;3.00;;;14.70;99.90;;;;;;4970109;28;20158;-73
2022/06/20 05:56:26;;;;;;;17.55;3.33;;;14.80;99.90;;;;;;4965271;28;20028;-73
2022/06/20 05:58:54;;;;;;;10.80;3.90;;;14.90;99.90;;;;;;4955426;28;20475;-75
2022/06/20 06:01:29;;;;;;;14.20;3.25;;;14.90;99.90;;;;;;4969509;28;20171;-74
2022/06/20 06:04:06;;;;;;;13.55;3.42;;;15.00;99.90;;;;;;4947576;28;20027;-73
2022/06/20 06:06:39;;;;;;;15.93;4.00;;;15.00;99.90;;;;;;4953640;28;20031;-73
2022/06/20 06:09:15;;;;;;;11.70;3.85;;;15.00;99.90;;;;;;4953010;28;20039;-74
2022/06/20 06:12:03;;;;;;;12.93;3.63;;;15.00;99.90;;;;;;4990834;28;20138;-73
2022/06/20 06:14:39;;;;;;;21.27;4.55;;;15.00;99.90;;;;;;5071774;28;20468;-73
2022/06/20 06:17:22;;;;;;;14.85;3.70;;;15.00;99.90;;;;;;5068788;28;20089;-74
2022/06/20 06:19:56;;;;;;;14.85;3.17;;;15.10;99.90;;;;;;5062831;28;20472;-74
2022/06/20 06:22:43;;;;;;;7.60;2.65;;;15.10;99.90;;;;;;5071989;28;20483;-73
2022/06/20 06:25:27;;;;;;;16.90;3.50;;;15.10;99.90;;;;;;5065952;28;20084;-73
2022/06/20 06:28:02;;;;;;;16.83;3.58;;;15.30;99.90;;;;;;5065977;28;20059;-73
2022/06/20 06:30:45;;;;;;;12.23;3.20;;;15.40;99.90;;;;;;5067191;28;20035;-73
2022/06/20 06:33:22;;;;;;;14.90;4.00;;;15.50;99.90;;;;;;5059610;28;20028;-74
2022/06/20 06:36:00;;;;;;;13.02;3.42;;;15.60;99.90;;;;;;5058716;28;20024;-73
2022/06/20 06:38:37;;;;;;;14.35;3.28;;;15.60;99.90;;;;;;5070774;28;20028;-74
2022/06/20 06:41:11;;;;;;;14.10;3.20;;;15.60;99.90;;;;;;5057814;28;20025;-73
2022/06/20 06:43:42;;;;;;;12.85;3.22;;;15.60;99.90;;;;;;5043495;28;20568;-73
2022/06/20 06:46:25;;;;;;;12.55;3.08;;;15.60;99.90;;;;;;5062400;28;20024;-73
2022/06/20 06:48:57;;;;;;;15.93;3.42;;;15.60;99.90;;;;;;5064977;28;20488;-73
2022/06/20 06:51:36;;;;;;;12.98;3.25;;;15.60;99.90;;;;;;5062483;28;20025;-74
2022/06/20 06:54:31;;;;;;;10.30;2.92;;;15.60;99.90;;;;;;5056117;28;20039;-75
2022/06/20 06:57:03;;;;;;;12.23;3.08;;;15.70;99.90;;;;;;5067565;28;20048;-73
2022/06/20 06:59:46;;;;;;;10.02;2.70;;;15.70;99.90;;;;;;5064525;28;20025;-73
2022/06/20 07:02:16;;;;;;;9.18;2.90;;;15.80;99.90;;;;;;5066013;28;20040;-73
2022/06/20 07:05:04;;;;;;;13.45;2.95;;;15.70;99.90;;;;;;5062292;28;20392;-73
2022/06/20 07:07:46;;;;;;;9.55;3.08;;;15.70;99.90;;;;;;5059513;28;20036;-74
2022/06/20 07:10:43;;;;;;;13.35;2.90;;;15.80;99.90;;;;;;5059612;28;20154;-73
2022/06/20 07:13:50;;;;;;;13.70;3.00;;;15.90;99.90;;;;;;5027786;28;20388;-74
2022/06/20 07:16:29;;;;;;;12.73;2.88;;;16.00;99.90;;;;;;5036015;28;20033;-73
2022/06/20 07:18:56;;;;;;;11.88;3.30;;;16.10;99.90;;;;;;5055600;28;20025;-73
2022/06/20 07:21:24;;;;;;;12.68;3.22;;;16.30;99.90;;;;;;5057731;28;20025;-74
2022/06/20 07:23:57;;;;;;;9.55;3.03;;;16.50;99.90;;;;;;5061255;28;20025;-74
2022/06/20 07:26:25;;;;;;;12.50;3.72;;;16.60;99.90;;;;;;5035757;28;20055;-73
2022/06/20 07:29:05;;;;;;;14.25;3.40;;;16.90;99.90;;;;;;5056607;28;20516;-73
2022/06/20 07:31:39;;;;;;;15.63;3.10;;;17.10;99.90;;;;;;5059209;28;20044;-74
2022/06/20 07:34:08;;;;;;;9.90;2.85;;;17.30;99.90;;;;;;5050561;28;20082;-74
2022/06/20 07:36:43;;;;;;;11.73;2.70;;;17.50;99.90;;;;;;5070487;28;20021;-74
2022/06/20 07:39:14;;;;;;;11.73;2.80;;;17.60;99.90;;;;;;5065986;28;20052;-75
2022/06/20 07:41:47;;;;;;;12.40;2.60;;;17.60;99.90;;;;;;5059403;28;20037;-75
2022/06/20 07:44:19;;;;;;;15.48;3.00;;;17.70;99.90;;;;;;5061805;28;20556;-73
2022/06/20 07:46:56;;;;;;;12.93;2.60;;;17.80;99.90;;;;;;5068765;28;20583;-74
2022/06/20 07:49:36;;;;;;;9.70;2.47;;;18.00;99.90;;;;;;5065974;28;20532;-73
2022/06/20 07:52:09;;;;;;;10.85;2.60;;;18.10;99.90;;;;;;5059121;28;20027;-73
2022/06/20 07:54:42;;;;;;;6.65;2.58;;;18.10;99.90;;;;;;5070176;28;20028;-74
2022/06/20 07:57:11;;;;;;;10.35;2.92;;;18.30;99.90;;;;;;5069907;28;20016;-74
2022/06/20 07:59:48;;;;;;;11.05;3.33;;;18.30;99.90;;;;;;5066712;28;20044;-73
2022/06/20 08:02:28;;;;;;;10.50;2.78;;;18.60;99.90;;;;;;5059997;28;20032;-75
2022/06/20 08:04:57;;;;;;;10.35;2.28;;;18.80;99.90;;;;;;5054263;28;20064;-75
2022/06/20 08:07:42;;;;;;;10.23;2.25;;;18.80;99.90;;;;;;5055903;28;20056;-75
2022/06/20 08:10:32;;;;;;;12.57;2.78;;;18.60;99.90;;;;;;5053753;28;20028;-75
2022/06/20 08:13:07;;;;;;;11.57;2.50;;;18.40;99.90;;;;;;5064729;28;20108;-75
2022/06/20 08:15:47;;;;;;;13.73;2.88;;;18.30;99.90;;;;;;5056845;28;20031;-75
2022/06/20 08:18:13;;;;;;;10.10;2.55;;;18.30;99.90;;;;;;5068798;28;20484;-75
2022/06/20 08:20:44;;;;;;;11.70;2.33;;;18.40;99.90;;;;;;5070384;28;20028;-75
2022/06/20 08:23:23;;;;;;;8.57;2.45;;;18.50;99.90;;;;;;5069665;28;20024;-75
2022/06/20 08:26:01;;;;;;;11.45;2.60;;;18.60;99.90;;;;;;5066981;28;20427;-76
2022/06/20 08:28:42;;;;;;;9.02;2.05;;;18.70;99.80;;;;;;5054741;28;20020;-75
2022/06/20 08:31:27;;;;;;;10.52;2.47;;;18.80;98.40;;;;;;5052398;28;20038;-75
2022/06/20 08:34:11;;;;;;;11.02;2.78;;;18.70;99.10;;;;;;5047002;28;20078;-75
2022/06/20 08:36:51;;;;;;;11.57;2.47;;;18.90;99.50;;;;;;5069944;28;20460;-75
2022/06/20 08:39:40;;;;;;;9.68;2.35;;;19.20;96.60;;;;;;5069927;28;20028;-75
2022/06/20 08:42:25;;;;;;;9.93;2.10;;;19.50;94.40;;;;;;5062028;28;20028;-75
2022/06/20 08:44:56;;;;;;;7.30;2.17;;;19.70;93.30;;;;;;5066867;28;20036;-75
2022/06/20 08:47:57;;;;;;;7.75;1.90;;;19.80;92.10;;;;;;5057878;28;20025;-75
2022/06/20 08:50:40;;;;;;;12.75;1.92;;;19.80;91.30;;;;;;5068000;28;20039;-75
2022/06/20 08:53:31;;;;;;;7.80;1.88;;;19.90;89.10;;;;;;5051330;28;20034;-75
2022/06/20 08:56:05;;;;;;;8.13;2.20;;;19.90;86.10;;;;;;5044100;28;20013;-74
2022/06/20 08:59:08;;;;;;;7.47;2.00;;;19.80;85.30;;;;;;5051159;28;20079;-74
2022/06/20 09:02:09;;;;;;;8.20;2.00;;;19.80;85.90;;;;;;5052891;28;20151;-75
2022/06/20 09:04:37;;;;;;;8.35;2.10;;;19.90;84.10;;;;;;5054881;28;20020;-76
2022/06/20 09:07:23;;;;;;;8.43;2.22;;;20.00;84.90;;;;;;5040293;28;20012;-76
2022/06/20 09:10:04;;;;;;;9.32;2.25;;;20.20;84.80;;;;;;5069554;28;20028;-76
2022/06/20 09:12:51;;;;;;;8.48;2.28;;;20.40;85.80;;;;;;5057053;28;20052;-76
2022/06/20 09:15:31;;;;;;;11.77;2.42;;;20.50;83.10;;;;;;5069583;28;20027;-75
2022/06/20 09:18:01;;;;;;;9.60;2.38;;;20.40;82.60;;;;;;5054294;28;20100;-75
2022/06/20 09:20:48;;;;;;;7.38;2.00;;;20.40;82.50;;;;;;5061317;28;20032;-75
2022/06/20 09:23:36;;;;;;;9.27;2.40;;;20.10;78.80;;;;;;5006700;28;20036;-74
2022/06/20 09:26:04;;;;;;;12.10;2.33;;;20.00;81.50;;;;;;5058684;28;20090;-75
2022/06/20 09:28:48;;;;;;;9.07;2.47;;;20.10;81.00;;;;;;5052022;28;20041;-75
2022/06/20 09:31:47;;;;;;;9.75;2.33;;;20.20;82.80;;;;;;5058434;28;20100;-75
2022/06/20 09:34:39;;;;;;;12.02;2.80;;;20.40;81.40;;;;;;5056469;28;20020;-75
2022/06/20 09:37:22;;;;;;;12.70;2.95;;;20.50;81.90;;;;;;5066903;28;20029;-75
2022/06/20 09:40:20;;;;;;;11.27;2.70;;;20.60;81.90;;;;;;5067820;28;20060;-75
2022/06/20 09:42:49;;;;;;;10.85;2.47;;;20.60;81.50;;;;;;5018098;28;20619;-75
2022/06/20 09:45:21;;;;;;;10.20;2.42;;;20.50;78.70;;;;;;5058497;28;20424;-75
2022/06/20 09:47:54;;;;;;;12.50;2.30;;;20.30;78.30;;;;;;5060426;28;20028;-76
2022/06/20 09:50:40;;;;;;;10.20;2.03;;;20.30;80.00;;;;;;5052316;28;20036;-75
2022/06/20 09:53:35;;;;;;;12.07;2.47;;;20.30;78.00;;;;;;5072235;28;20077;-75
2022/06/20 09:56:01;;;;;;;12.30;2.63;;;20.20;79.70;;;;;;5020931;28;20484;-76
2022/06/20 09:59:07;;;;;;;11.02;2.80;;;20.30;80.40;;;;;;5056814;28;20021;-76
2022/06/20 10:01:39;;;;;;;8.82;2.55;;;20.50;80.00;;;;;;5071004;28;20032;-83
2022/06/20 10:04:33;;;;;;;15.13;2.60;;;20.50;79.90;;;;;;5064616;28;20024;-73
2022/06/20 10:07:21;;;;;;;10.80;2.15;;;20.60;79.50;;;;;;5039500;28;20078;-72
2022/06/20 10:10:12;;;;;;;10.85;2.42;;;20.60;76.50;;;;;;5053946;28;20021;-73
2022/06/20 10:12:57;;;;;;;9.73;2.67;;;20.60;78.80;;;;;;5042952;28;20056;-74
2022/06/20 10:15:28;;;;;;;9.47;2.60;;;20.40;75.80;;;;;;5071893;28;20016;-73
2022/06/20 10:18:11;;;;;;;13.77;2.53;;;20.30;76.60;;;;;;5054039;28;20470;-74
2022/06/20 10:20:47;;;;;;;8.35;2.40;;;20.10;78.80;;;;;;5071969;28;20028;-73
2022/06/20 10:23:24;;;;;;;13.38;2.67;;;20.10;79.50;;;;;;5063760;28;20395;-73
2022/06/20 10:26:14;;;;;;;10.75;2.40;;;20.20;79.50;;;;;;5071597;28;20036;-73
2022/06/20 10:29:09;;;;;;;9.55;2.70;;;20.40;79.60;;;;;;5053817;28;20066;-73
2022/06/20 10:31:42;;;;;;;10.30;2.45;;;20.60;80.40;;;;;;5071362;28;20039;-73
2022/06/20 10:34:28;;;;;;;10.23;2.40;;;20.60;79.10;;;;;;5071637;28;20025;-73
2022/06/20 10:37:05;;;;;;;;;;;20.60;78.30;;;;;;5078670;28;20779;-84
2022/06/20 10:39:52;;;;;;;8.93;1.92;;;20.70;78.30;;;;;;5066789;28;19918;-82
2022/06/20 10:42:57;;;;;;;8.68;2.15;;;20.80;76.30;;;;;;5049454;28;20478;-82
2022/06/20 10:45:55;;;;;;;8.68;2.53;;;20.60;76.80;;;;;;5072615;28;20052;-83
2022/06/20 10:48:45;;;;;;;9.68;2.13;;;20.70;77.20;;;;;;5060594;28;20133;-83
2022/06/20 10:51:34;;;;;;;9.40;2.35;;;20.90;76.40;;;;;;5068590;28;20053;-83
2022/06/20 10:54:51;;;;;;;7.93;2.10;;;21.10;74.30;;;;;;5068908;28;20137;-83
2022/06/20 10:57:37;;;;;;;9.57;2.42;;;21.20;72.70;;;;;;5007270;28;20046;-82
2022/06/20 11:00:19;;;;;;;7.07;2.00;;;21.00;72.70;;;;;;5010175;28;20042;-81
2022/06/20 11:02:52;;;;;;;4.70;1.90;;;20.80;71.00;;;;;;5001290;28;20055;-82
2022/06/20 11:05:25;;;;;;;7.25;2.03;;;20.90;70.50;;;;;;5003615;28;20093;-84
2022/06/20 11:08:15;;;;;;;9.23;1.98;;;21.00;69.90;;;;;;5012507;28;20049;-83
2022/06/20 11:10:52;;;;;;;8.68;2.08;;;20.90;68.90;;;;;;5009349;28;20053;-85
2022/06/20 11:13:40;;;;;;;7.93;1.95;;;20.70;66.30;;;;;;4995838;28;20042;-82
2022/06/20 11:16:25;;;;;;;6.03;1.80;;;20.60;68.40;;;;;;5015645;28;20029;-82
2022/06/20 11:19:14;;;;;;;8.55;2.25;;;20.60;70.00;;;;;;5014009;28;20037;-84
2022/06/20 11:22:04;;;;;;;6.55;1.90;;;20.50;71.60;;;;;;5011926;28;20041;-80
2022/06/20 11:24:33;;;;;;;7.80;2.08;;;20.40;70.40;;;;;;5007795;28;20143;-76
2022/06/20 11:26:58;;;;;;;9.73;2.15;;;20.30;71.50;;;;;;5010628;28;20600;-76
2022/06/20 11:29:30;;;;;;;7.15;2.03;;;20.40;72.60;;;;;;5008073;28;20101;-78
2022/06/20 11:31:58;;;;;;;9.07;2.45;;;20.50;72.00;;;;;;5026957;28;20036;-78
2022/06/20 11:34:43;;;;;;;7.65;2.10;;;20.40;73.40;;;;;;5079085;28;20050;-78
2022/06/20 11:37:44;;;;;;;10.65;2.13;;;20.40;73.60;;;;;;5075569;28;20059;-79
2022/06/20 11:40:28;;;;;;;12.38;2.55;;;20.30;73.90;;;;;;5059597;28;20073;-80
2022/06/20 11:43:02;;;;;;;10.57;2.83;;;20.40;74.40;;;;;;5048133;28;20381;-79
2022/06/20 11:45:54;;;;;;;7.47;1.93;;;20.60;73.70;;;;;;5063552;28;20028;-78
2022/06/20 11:48:44;;;;;;;10.18;2.33;;;20.60;73.60;;;;;;5061678;28;20364;-78
2022/06/20 11:51:21;;;;;;;9.35;2.35;;;20.40;74.50;;;;;;5070937;28;20033;-80
2022/06/20 11:54:07;;;;;;;10.57;2.50;;;20.40;75.90;;;;;;5070248;28;20020;-79
2022/06/20 11:57:10;;;;;;;12.70;2.38;;;20.60;76.30;;;;;;5055782;28;20036;-78
2022/06/20 11:59:50;;;;;;;10.70;2.63;;;20.80;76.30;;;;;;5063646;28;20162;-79
2022/06/20 12:02:39;;;;;;;15.48;2.67;;;20.80;76.50;;;;;;5070064;28;20044;-78
2022/06/20 12:05:17;;;;;;;17.95;3.30;;;20.60;76.90;;;;;;5061823;28;20033;-79
2022/06/20 12:08:12;;;;;;;14.40;3.10;;;20.40;78.00;;;;;;5068126;28;20108;-78
2022/06/20 12:10:47;;;;;;;10.00;2.53;;;20.30;78.30;;;;;;5052355;28;20039;-79
2022/06/20 12:13:27;;;;;;;15.02;2.70;;;20.10;79.90;;;;;;5070307;28;20025;-78
2022/06/20 12:16:19;;;;;;;14.07;3.20;;;20.10;80.70;;;;;;5070243;28;20052;-78
2022/06/20 12:24:21;;;;;;;11.38;3.20;;;19.70;82.00;;;;;;5069178;28;20507;-78
2022/06/20 12:26:46;;;;;;;12.77;3.00;;;19.60;83.60;;;;;;5070138;28;20047;-79
2022/06/20 12:29:16;;;;;;;13.48;2.90;;;19.60;84.70;;;;;;5052188;28;20016;-78
2022/06/20 12:31:45;;;;;;;10.35;2.78;;;19.80;86.00;;;;;;5069868;28;20032;-81
2022/06/20 12:34:19;;;;;;;15.60;3.55;;;19.90;84.00;;;;;;5070292;28;20099;-80
2022/06/20 12:36:57;;;;;;;12.05;2.83;;;19.90;83.90;;;;;;5070500;28;20021;-79
2022/06/20 12:39:31;;;;;;;11.30;3.00;;;19.90;83.50;;;;;;5070169;28;20071;-79
2022/06/20 12:42:02;;;;;;;14.98;3.08;;;19.90;83.60;;;;;;5070115;28;20392;-80
2022/06/20 12:44:46;;;;;;;11.65;2.90;;;19.80;85.00;;;;;;5070074;28;20021;-79
2022/06/20 12:47:23;;;;;;;12.35;3.38;;;20.00;85.90;;;;;;5069937;28;20423;-80
2022/06/20 12:50:10;;;;;;;14.90;2.53;;;20.40;85.20;;;;;;5059690;28;20480;-78
2022/06/20 12:53:04;;;;;;;9.27;2.40;;;20.60;83.30;;;;;;5069591;28;20028;-78
2022/06/20 12:55:33;;;;;;;8.07;2.60;;;20.70;80.90;;;;;;5064711;28;20116;-80
2022/06/20 12:58:11;;;;;;;10.50;2.30;;;20.50;81.80;;;;;;5042288;28;20052;-78
2022/06/20 13:00:45;;;;;;;9.20;2.30;;;20.40;81.30;;;;;;5054751;28;20025;-76
2022/06/20 13:03:45;;;;;;;10.07;2.20;;;20.40;80.60;;;;;;5069743;28;20465;-76
2022/06/20 13:06:31;;;;;;;7.47;2.20;;;20.60;81.00;;;;;;5063489;28;20031;-73
2022/06/20 13:09:08;;;;;;;11.93;2.53;;;20.60;79.30;;;;;;5064852;28;20115;-74
2022/06/20 13:11:57;;;;;;;9.07;2.20;;;20.50;78.60;;;;;;5071081;28;20020;-73
2022/06/20 13:14:41;;;;;;;9.27;2.20;;;20.40;79.40;;;;;;5063330;28;20376;-73
2022/06/20 13:17:26;;;;;;;7.57;1.98;;;20.60;78.00;;;;;;5057484;28;20086;-73
2022/06/20 13:20:26;;;;;;;6.53;1.92;;;20.70;76.40;;;;;;5071800;28;20032;-74
2022/06/20 13:23:19;;;;;;;8.07;1.70;;;21.00;76.50;;;;;;5063716;28;20060;-75
2022/06/20 13:26:42;;;;;;;8.40;2.20;;;21.20;74.70;;;;;;5061032;28;20051;-74
2022/06/20 13:29:16;;;;;;;6.45;1.75;;;21.20;71.40;;;;;;5014916;28;20107;-73
2022/06/20 13:32:10;;;;;;;3.58;1.60;;;21.30;71.50;;;;;;5004580;28;20417;-74
2022/06/20 13:34:58;;;;;;;4.82;1.80;;;21.40;69.40;;;;;;5006266;28;20052;-74
2022/06/20 13:37:48;;;;;;;10.35;2.15;;;21.50;69.40;;;;;;5008847;28;20683;-74
2022/06/20 13:40:27;;;;;;;6.70;1.77;;;21.60;70.00;;;;;;5018816;28;20133;-74
2022/06/20 13:43:10;;;;;;;9.02;2.00;;;21.20;71.80;;;;;;5000518;28;20029;-73
2022/06/20 13:46:01;;;;;;;12.02;2.05;;;21.10;72.90;;;;;;4999127;28;20030;-74
2022/06/20 13:48:38;;;;;;;6.65;2.15;;;21.00;73.40;;;;;;5014940;28;20177;-74
2022/06/20 13:51:27;;;;;;;8.00;1.80;;;20.90;73.50;;;;;;5011332;28;20041;-73